sensor_id;sensor_type;location;lat;lon;timestamp;P1;durP1;ratioP1;P2;durP2;ratioP2
82296;SDS011;71899;51.992;8.648;2023-12-04T00:00:24;29.52;;;14.23;;
82296;SDS011;71899;51.992;8.648;2023-12-04T00:02:49;31.58;;;13.35;;
82296;SDS011;71899;51.992;8.648;2023-12-04T00:05:15;26.25;;;12.52;;
82296;SDS011;71899;51.992;8.648;2023-12-04T00:07:40;35.20;;;14.93;;
82296;SDS011;71899;51.992;8.648;2023-12-04T00:10:05;30.85;;;14.38;;
82296;SDS011;71899;51.992;8.648;2023-12-04T00:12:31;27.67;;;13.45;;
82296;SDS011;71899;51.992;8.648;2023-12-04T00:14:57;25.73;;;13.27;;
82296;SDS011;71899;51.992;8.648;2023-12-04T00:17:22;31.88;;;12.68;;
82296;SDS011;71899;51.992;8.648;2023-12-04T00:19:47;23.48;;;12.02;;
82296;SDS011;71899;51.992;8.648;2023-12-04T00:22:13;23.10;;;10.93;;
82296;SDS011;71899;51.992;8.648;2023-12-04T00:24:38;24.10;;;12.25;;
82296;SDS011;71899;51.992;8.648;2023-12-04T00:27:04;27.70;;;12.35;;
82296;SDS011;71899;51.992;8.648;2023-12-04T00:29:29;28.73;;;13.15;;
82296;SDS011;71899;51.992;8.648;2023-12-04T00:31:55;24.80;;;10.85;;
82296;SDS011;71899;51.992;8.648;2023-12-04T00:34:22;24.23;;;11.50;;
82296;SDS011;71899;51.992;8.648;2023-12-04T00:36:47;24.73;;;11.52;;
82296;SDS011;71899;51.992;8.648;2023-12-04T00:39:13;27.35;;;10.90;;
82296;SDS011;71899;51.992;8.648;2023-12-04T00:41:38;22.75;;;12.13;;
82296;SDS011;71899;51.992;8.648;2023-12-04T00:44:03;29.33;;;12.45;;
82296;SDS011;71899;51.992;8.648;2023-12-04T00:46:29;22.85;;;11.07;;
82296;SDS011;71899;51.992;8.648;2023-12-04T00:48:54;25.05;;;11.55;;
82296;SDS011;71899;51.992;8.648;2023-12-04T00:51:20;24.83;;;12.45;;
82296;SDS011;71899;51.992;8.648;2023-12-04T00:53:45;21.85;;;12.35;;
82296;SDS011;71899;51.992;8.648;2023-12-04T00:56:10;24.30;;;12.77;;
82296;SDS011;71899;51.992;8.648;2023-12-04T00:58:36;28.67;;;13.50;;
82296;SDS011;71899;51.992;8.648;2023-12-04T01:01:01;22.25;;;11.98;;
82296;SDS011;71899;51.992;8.648;2023-12-04T01:03:26;23.67;;;11.50;;
82296;SDS011;71899;51.992;8.648;2023-12-04T01:05:52;24.80;;;11.77;;
82296;SDS011;71899;51.992;8.648;2023-12-04T01:08:17;26.88;;;11.95;;
82296;SDS011;71899;51.992;8.648;2023-12-04T01:10:43;23.75;;;11.15;;
82296;SDS011;71899;51.992;8.648;2023-12-04T01:13:08;23.52;;;11.00;;
82296;SDS011;71899;51.992;8.648;2023-12-04T01:15:33;24.67;;;11.10;;
82296;SDS011;71899;51.992;8.648;2023-12-04T01:17:59;23.27;;;12.05;;
82296;SDS011;71899;51.992;8.648;2023-12-04T01:20:25;33.97;;;10.50;;
82296;SDS011;71899;51.992;8.648;2023-12-04T01:22:51;22.38;;;12.07;;
82296;SDS011;71899;51.992;8.648;2023-12-04T01:25:16;25.75;;;11.70;;
82296;SDS011;71899;51.992;8.648;2023-12-04T01:27:41;27.55;;;12.48;;
82296;SDS011;71899;51.992;8.648;2023-12-04T01:30:07;26.00;;;11.63;;
82296;SDS011;71899;51.992;8.648;2023-12-04T01:32:34;25.27;;;12.32;;
82296;SDS011;71899;51.992;8.648;2023-12-04T01:35:00;23.85;;;11.00;;
82296;SDS011;71899;51.992;8.648;2023-12-04T01:37:26;26.20;;;12.23;;
82296;SDS011;71899;51.992;8.648;2023-12-04T01:39:52;24.90;;;12.48;;
82296;SDS011;71899;51.992;8.648;2023-12-04T01:42:17;23.08;;;12.25;;
82296;SDS011;71899;51.992;8.648;2023-12-04T01:44:42;24.70;;;11.85;;
82296;SDS011;71899;51.992;8.648;2023-12-04T01:47:08;24.77;;;10.93;;
82296;SDS011;71899;51.992;8.648;2023-12-04T01:49:33;29.90;;;12.82;;
82296;SDS011;71899;51.992;8.648;2023-12-04T01:51:59;20.60;;;9.88;;
82296;SDS011;71899;51.992;8.648;2023-12-04T01:54:25;25.80;;;12.25;;
82296;SDS011;71899;51.992;8.648;2023-12-04T01:56:50;19.77;;;10.10;;
82296;SDS011;71899;51.992;8.648;2023-12-04T01:59:16;21.23;;;11.27;;
82296;SDS011;71899;51.992;8.648;2023-12-04T02:01:41;19.13;;;11.50;;
82296;SDS011;71899;51.992;8.648;2023-12-04T02:04:07;23.85;;;11.35;;
82296;SDS011;71899;51.992;8.648;2023-12-04T02:06:33;24.33;;;10.82;;
82296;SDS011;71899;51.992;8.648;2023-12-04T02:08:59;25.67;;;11.75;;
82296;SDS011;71899;51.992;8.648;2023-12-04T02:11:25;23.13;;;11.50;;
82296;SDS011;71899;51.992;8.648;2023-12-04T02:13:50;17.50;;;9.82;;
82296;SDS011;71899;51.992;8.648;2023-12-04T02:16:16;19.98;;;10.45;;
82296;SDS011;71899;51.992;8.648;2023-12-04T02:18:43;22.33;;;11.93;;
82296;SDS011;71899;51.992;8.648;2023-12-04T02:21:09;21.13;;;11.45;;
82296;SDS011;71899;51.992;8.648;2023-12-04T02:23:34;20.98;;;12.23;;
82296;SDS011;71899;51.992;8.648;2023-12-04T02:26:05;19.90;;;9.13;;
82296;SDS011;71899;51.992;8.648;2023-12-04T02:28:35;22.20;;;11.20;;
82296;SDS011;71899;51.992;8.648;2023-12-04T02:31:03;19.42;;;11.43;;
82296;SDS011;71899;51.992;8.648;2023-12-04T02:33:29;16.55;;;9.20;;
82296;SDS011;71899;51.992;8.648;2023-12-04T02:35:57;20.42;;;11.13;;
82296;SDS011;71899;51.992;8.648;2023-12-04T02:38:23;16.95;;;9.85;;
82296;SDS011;71899;51.992;8.648;2023-12-04T02:40:49;18.65;;;10.55;;
82296;SDS011;71899;51.992;8.648;2023-12-04T02:43:15;16.92;;;9.82;;
82296;SDS011;71899;51.992;8.648;2023-12-04T02:45:40;16.20;;;9.40;;
82296;SDS011;71899;51.992;8.648;2023-12-04T02:48:06;17.02;;;9.95;;
82296;SDS011;71899;51.992;8.648;2023-12-04T02:50:31;21.13;;;9.05;;
82296;SDS011;71899;51.992;8.648;2023-12-04T02:52:57;18.75;;;9.13;;
82296;SDS011;71899;51.992;8.648;2023-12-04T02:55:22;19.08;;;10.32;;
82296;SDS011;71899;51.992;8.648;2023-12-04T02:57:47;19.88;;;9.75;;
82296;SDS011;71899;51.992;8.648;2023-12-04T03:00:13;15.45;;;8.85;;
82296;SDS011;71899;51.992;8.648;2023-12-04T03:02:38;18.02;;;9.50;;
82296;SDS011;71899;51.992;8.648;2023-12-04T03:05:04;13.38;;;7.53;;
82296;SDS011;71899;51.992;8.648;2023-12-04T03:07:29;16.08;;;8.82;;
82296;SDS011;71899;51.992;8.648;2023-12-04T03:09:55;15.73;;;8.25;;
82296;SDS011;71899;51.992;8.648;2023-12-04T03:12:20;15.27;;;8.23;;
82296;SDS011;71899;51.992;8.648;2023-12-04T03:14:45;13.55;;;7.88;;
82296;SDS011;71899;51.992;8.648;2023-12-04T03:17:11;13.85;;;8.40;;
82296;SDS011;71899;51.992;8.648;2023-12-04T03:19:36;11.52;;;8.02;;
82296;SDS011;71899;51.992;8.648;2023-12-04T03:22:01;16.83;;;8.40;;
82296;SDS011;71899;51.992;8.648;2023-12-04T03:24:27;11.23;;;6.75;;
82296;SDS011;71899;51.992;8.648;2023-12-04T03:26:52;15.13;;;8.55;;
82296;SDS011;71899;51.992;8.648;2023-12-04T03:29:18;16.45;;;8.30;;
82296;SDS011;71899;51.992;8.648;2023-12-04T03:31:43;16.67;;;7.63;;
82296;SDS011;71899;51.992;8.648;2023-12-04T03:34:08;17.67;;;7.78;;
82296;SDS011;71899;51.992;8.648;2023-12-04T03:36:34;16.23;;;8.77;;
82296;SDS011;71899;51.992;8.648;2023-12-04T03:38:59;12.95;;;7.75;;
82296;SDS011;71899;51.992;8.648;2023-12-04T03:41:25;14.43;;;8.27;;
82296;SDS011;71899;51.992;8.648;2023-12-04T03:43:50;13.80;;;7.95;;
82296;SDS011;71899;51.992;8.648;2023-12-04T03:46:15;14.05;;;7.85;;
82296;SDS011;71899;51.992;8.648;2023-12-04T03:48:41;13.35;;;7.85;;
82296;SDS011;71899;51.992;8.648;2023-12-04T03:51:06;15.57;;;8.57;;
82296;SDS011;71899;51.992;8.648;2023-12-04T03:53:32;14.10;;;7.53;;
82296;SDS011;71899;51.992;8.648;2023-12-04T03:56:00;14.82;;;7.90;;
82296;SDS011;71899;51.992;8.648;2023-12-04T03:58:25;11.93;;;7.55;;
82296;SDS011;71899;51.992;8.648;2023-12-04T04:00:51;11.90;;;7.53;;
82296;SDS011;71899;51.992;8.648;2023-12-04T04:03:16;12.45;;;7.40;;
82296;SDS011;71899;51.992;8.648;2023-12-04T04:05:41;9.90;;;6.30;;
82296;SDS011;71899;51.992;8.648;2023-12-04T04:08:07;15.18;;;8.82;;
82296;SDS011;71899;51.992;8.648;2023-12-04T04:10:33;13.90;;;6.45;;
82296;SDS011;71899;51.992;8.648;2023-12-04T04:12:58;8.73;;;5.57;;
82296;SDS011;71899;51.992;8.648;2023-12-04T04:15:25;15.70;;;7.50;;
82296;SDS011;71899;51.992;8.648;2023-12-04T04:17:50;10.55;;;7.10;;
82296;SDS011;71899;51.992;8.648;2023-12-04T04:20:16;14.27;;;8.27;;
82296;SDS011;71899;51.992;8.648;2023-12-04T04:22:41;11.77;;;7.40;;
82296;SDS011;71899;51.992;8.648;2023-12-04T04:25:07;13.15;;;7.28;;
82296;SDS011;71899;51.992;8.648;2023-12-04T04:27:33;13.02;;;8.00;;
82296;SDS011;71899;51.992;8.648;2023-12-04T04:29:58;16.17;;;7.90;;
82296;SDS011;71899;51.992;8.648;2023-12-04T04:32:24;13.65;;;7.00;;
82296;SDS011;71899;51.992;8.648;2023-12-04T04:34:49;12.73;;;6.03;;
82296;SDS011;71899;51.992;8.648;2023-12-04T04:37:15;12.85;;;7.50;;
82296;SDS011;71899;51.992;8.648;2023-12-04T04:39:40;13.38;;;6.68;;
82296;SDS011;71899;51.992;8.648;2023-12-04T04:42:05;9.05;;;6.38;;
82296;SDS011;71899;51.992;8.648;2023-12-04T04:44:31;11.43;;;6.72;;
82296;SDS011;71899;51.992;8.648;2023-12-04T04:46:56;10.07;;;6.35;;
82296;SDS011;71899;51.992;8.648;2023-12-04T04:49:22;13.20;;;6.72;;
82296;SDS011;71899;51.992;8.648;2023-12-04T04:51:47;12.98;;;7.40;;
82296;SDS011;71899;51.992;8.648;2023-12-04T04:54:12;16.48;;;6.95;;
82296;SDS011;71899;51.992;8.648;2023-12-04T04:56:38;12.45;;;7.50;;
82296;SDS011;71899;51.992;8.648;2023-12-04T04:59:03;12.02;;;7.20;;
82296;SDS011;71899;51.992;8.648;2023-12-04T05:01:28;12.75;;;7.00;;
82296;SDS011;71899;51.992;8.648;2023-12-04T05:03:54;11.05;;;6.63;;
82296;SDS011;71899;51.992;8.648;2023-12-04T05:06:19;8.45;;;5.72;;
82296;SDS011;71899;51.992;8.648;2023-12-04T05:08:45;11.50;;;7.15;;
82296;SDS011;71899;51.992;8.648;2023-12-04T05:11:10;11.27;;;6.97;;
82296;SDS011;71899;51.992;8.648;2023-12-04T05:13:35;13.57;;;6.40;;
82296;SDS011;71899;51.992;8.648;2023-12-04T05:16:01;13.45;;;6.45;;
82296;SDS011;71899;51.992;8.648;2023-12-04T05:18:26;10.98;;;6.30;;
82296;SDS011;71899;51.992;8.648;2023-12-04T05:20:51;8.88;;;6.25;;
82296;SDS011;71899;51.992;8.648;2023-12-04T05:23:17;12.20;;;6.93;;
82296;SDS011;71899;51.992;8.648;2023-12-04T05:25:42;12.57;;;6.78;;
82296;SDS011;71899;51.992;8.648;2023-12-04T05:28:07;8.90;;;6.07;;
82296;SDS011;71899;51.992;8.648;2023-12-04T05:30:34;12.98;;;7.13;;
82296;SDS011;71899;51.992;8.648;2023-12-04T05:32:59;11.10;;;6.50;;
82296;SDS011;71899;51.992;8.648;2023-12-04T05:35:24;10.82;;;6.85;;
82296;SDS011;71899;51.992;8.648;2023-12-04T05:37:50;11.18;;;5.85;;
82296;SDS011;71899;51.992;8.648;2023-12-04T05:40:15;12.43;;;6.60;;
82296;SDS011;71899;51.992;8.648;2023-12-04T05:42:40;9.75;;;6.57;;
82296;SDS011;71899;51.992;8.648;2023-12-04T05:45:08;9.63;;;6.05;;
82296;SDS011;71899;51.992;8.648;2023-12-04T05:47:34;11.32;;;5.93;;
82296;SDS011;71899;51.992;8.648;2023-12-04T05:49:59;10.65;;;6.13;;
82296;SDS011;71899;51.992;8.648;2023-12-04T05:52:25;7.60;;;5.45;;
82296;SDS011;71899;51.992;8.648;2023-12-04T05:54:50;13.75;;;6.95;;
82296;SDS011;71899;51.992;8.648;2023-12-04T05:57:16;11.25;;;6.45;;
82296;SDS011;71899;51.992;8.648;2023-12-04T05:59:41;9.73;;;6.03;;
82296;SDS011;71899;51.992;8.648;2023-12-04T06:02:07;16.73;;;7.18;;
82296;SDS011;71899;51.992;8.648;2023-12-04T06:04:32;10.50;;;5.65;;
82296;SDS011;71899;51.992;8.648;2023-12-04T06:06:57;14.00;;;7.18;;
82296;SDS011;71899;51.992;8.648;2023-12-04T06:09:23;10.63;;;5.57;;
82296;SDS011;71899;51.992;8.648;2023-12-04T06:11:48;10.18;;;6.03;;
82296;SDS011;71899;51.992;8.648;2023-12-04T06:14:13;13.93;;;7.00;;
82296;SDS011;71899;51.992;8.648;2023-12-04T06:16:39;12.48;;;6.20;;
82296;SDS011;71899;51.992;8.648;2023-12-04T06:19:04;12.85;;;6.72;;
82296;SDS011;71899;51.992;8.648;2023-12-04T06:21:30;11.70;;;6.28;;
82296;SDS011;71899;51.992;8.648;2023-12-04T06:23:55;9.57;;;6.10;;
82296;SDS011;71899;51.992;8.648;2023-12-04T06:26:21;10.75;;;6.38;;
82296;SDS011;71899;51.992;8.648;2023-12-04T06:28:47;11.18;;;6.60;;
82296;SDS011;71899;51.992;8.648;2023-12-04T06:31:13;11.82;;;6.28;;
82296;SDS011;71899;51.992;8.648;2023-12-04T06:33:39;9.93;;;6.43;;
82296;SDS011;71899;51.992;8.648;2023-12-04T06:36:04;11.00;;;6.88;;
82296;SDS011;71899;51.992;8.648;2023-12-04T06:38:32;13.57;;;7.13;;
82296;SDS011;71899;51.992;8.648;2023-12-04T06:40:59;11.57;;;5.95;;
82296;SDS011;71899;51.992;8.648;2023-12-04T06:43:25;10.68;;;6.25;;
82296;SDS011;71899;51.992;8.648;2023-12-04T06:45:51;13.20;;;6.57;;
82296;SDS011;71899;51.992;8.648;2023-12-04T06:48:16;10.07;;;6.55;;
82296;SDS011;71899;51.992;8.648;2023-12-04T06:50:42;11.70;;;6.30;;
82296;SDS011;71899;51.992;8.648;2023-12-04T06:53:08;10.07;;;6.88;;
82296;SDS011;71899;51.992;8.648;2023-12-04T06:55:33;11.52;;;6.05;;
82296;SDS011;71899;51.992;8.648;2023-12-04T06:57:59;11.18;;;6.45;;
82296;SDS011;71899;51.992;8.648;2023-12-04T07:00:24;11.13;;;5.60;;
82296;SDS011;71899;51.992;8.648;2023-12-04T07:02:50;9.65;;;6.57;;
82296;SDS011;71899;51.992;8.648;2023-12-04T07:05:16;10.95;;;5.82;;
82296;SDS011;71899;51.992;8.648;2023-12-04T07:07:41;10.90;;;6.32;;
82296;SDS011;71899;51.992;8.648;2023-12-04T07:10:07;12.38;;;6.22;;
82296;SDS011;71899;51.992;8.648;2023-12-04T07:12:32;12.48;;;7.18;;
82296;SDS011;71899;51.992;8.648;2023-12-04T07:14:58;13.40;;;5.90;;
82296;SDS011;71899;51.992;8.648;2023-12-04T07:19:00;11.60;;;6.25;;
82296;SDS011;71899;51.992;8.648;2023-12-04T07:21:26;10.48;;;5.82;;
82296;SDS011;71899;51.992;8.648;2023-12-04T07:23:51;9.40;;;5.95;;
82296;SDS011;71899;51.992;8.648;2023-12-04T07:26:16;11.38;;;6.50;;
82296;SDS011;71899;51.992;8.648;2023-12-04T07:28:42;8.60;;;6.18;;
82296;SDS011;71899;51.992;8.648;2023-12-04T07:31:07;10.23;;;6.10;;
82296;SDS011;71899;51.992;8.648;2023-12-04T07:33:32;12.10;;;6.43;;
82296;SDS011;71899;51.992;8.648;2023-12-04T07:35:58;10.10;;;5.82;;
82296;SDS011;71899;51.992;8.648;2023-12-04T07:38:23;16.02;;;6.82;;
82296;SDS011;71899;51.992;8.648;2023-12-04T07:40:49;9.63;;;5.50;;
82296;SDS011;71899;51.992;8.648;2023-12-04T07:43:14;11.57;;;6.65;;
82296;SDS011;71899;51.992;8.648;2023-12-04T07:45:40;12.38;;;6.88;;
82296;SDS011;71899;51.992;8.648;2023-12-04T07:48:06;11.35;;;5.88;;
82296;SDS011;71899;51.992;8.648;2023-12-04T07:50:31;13.90;;;6.25;;
82296;SDS011;71899;51.992;8.648;2023-12-04T07:52:57;14.88;;;7.00;;
82296;SDS011;71899;51.992;8.648;2023-12-04T07:55:22;10.52;;;6.00;;
82296;SDS011;71899;51.992;8.648;2023-12-04T07:57:47;7.13;;;5.03;;
82296;SDS011;71899;51.992;8.648;2023-12-04T08:00:13;9.30;;;5.95;;
82296;SDS011;71899;51.992;8.648;2023-12-04T08:02:39;11.45;;;6.25;;
82296;SDS011;71899;51.992;8.648;2023-12-04T08:05:04;8.35;;;5.38;;
82296;SDS011;71899;51.992;8.648;2023-12-04T08:07:30;8.60;;;5.63;;
82296;SDS011;71899;51.992;8.648;2023-12-04T08:09:55;10.05;;;6.07;;
82296;SDS011;71899;51.992;8.648;2023-12-04T08:12:20;8.93;;;6.05;;
82296;SDS011;71899;51.992;8.648;2023-12-04T08:14:46;11.98;;;6.45;;
82296;SDS011;71899;51.992;8.648;2023-12-04T08:17:11;8.63;;;5.72;;
82296;SDS011;71899;51.992;8.648;2023-12-04T08:19:37;9.95;;;5.55;;
82296;SDS011;71899;51.992;8.648;2023-12-04T08:22:03;10.73;;;5.75;;
82296;SDS011;71899;51.992;8.648;2023-12-04T08:24:28;10.60;;;5.45;;
82296;SDS011;71899;51.992;8.648;2023-12-04T08:26:56;9.13;;;6.10;;
82296;SDS011;71899;51.992;8.648;2023-12-04T08:29:22;11.90;;;6.00;;
82296;SDS011;71899;51.992;8.648;2023-12-04T08:31:47;10.88;;;6.10;;
82296;SDS011;71899;51.992;8.648;2023-12-04T08:34:13;11.82;;;5.72;;
82296;SDS011;71899;51.992;8.648;2023-12-04T08:36:38;9.80;;;5.80;;
82296;SDS011;71899;51.992;8.648;2023-12-04T08:39:03;9.88;;;6.30;;
82296;SDS011;71899;51.992;8.648;2023-12-04T08:41:29;11.10;;;6.38;;
82296;SDS011;71899;51.992;8.648;2023-12-04T08:43:54;10.10;;;5.28;;
82296;SDS011;71899;51.992;8.648;2023-12-04T08:46:20;9.70;;;5.65;;
82296;SDS011;71899;51.992;8.648;2023-12-04T08:48:46;10.52;;;5.63;;
82296;SDS011;71899;51.992;8.648;2023-12-04T08:51:17;12.77;;;6.78;;
82296;SDS011;71899;51.992;8.648;2023-12-04T08:53:43;8.90;;;5.72;;
82296;SDS011;71899;51.992;8.648;2023-12-04T08:56:09;12.55;;;6.38;;
82296;SDS011;71899;51.992;8.648;2023-12-04T08:58:35;9.23;;;6.05;;
82296;SDS011;71899;51.992;8.648;2023-12-04T09:01:00;8.52;;;5.68;;
82296;SDS011;71899;51.992;8.648;2023-12-04T09:03:25;12.02;;;5.85;;
82296;SDS011;71899;51.992;8.648;2023-12-04T09:05:51;11.65;;;6.30;;
82296;SDS011;71899;51.992;8.648;2023-12-04T09:08:17;11.30;;;6.10;;
82296;SDS011;71899;51.992;8.648;2023-12-04T09:10:44;14.32;;;5.90;;
82296;SDS011;71899;51.992;8.648;2023-12-04T09:13:10;9.77;;;5.72;;
82296;SDS011;71899;51.992;8.648;2023-12-04T09:15:36;8.25;;;4.68;;
82296;SDS011;71899;51.992;8.648;2023-12-04T09:18:01;9.18;;;5.60;;
82296;SDS011;71899;51.992;8.648;2023-12-04T09:20:27;9.35;;;5.90;;
82296;SDS011;71899;51.992;8.648;2023-12-04T09:22:52;9.05;;;5.35;;
82296;SDS011;71899;51.992;8.648;2023-12-04T09:25:17;9.73;;;5.43;;
82296;SDS011;71899;51.992;8.648;2023-12-04T09:27:43;8.68;;;5.45;;
82296;SDS011;71899;51.992;8.648;2023-12-04T09:30:08;8.23;;;5.22;;
82296;SDS011;71899;51.992;8.648;2023-12-04T09:32:34;9.57;;;5.38;;
82296;SDS011;71899;51.992;8.648;2023-12-04T09:34:59;7.78;;;4.40;;
82296;SDS011;71899;51.992;8.648;2023-12-04T09:37:25;8.90;;;4.82;;
82296;SDS011;71899;51.992;8.648;2023-12-04T09:39:50;8.43;;;5.30;;
82296;SDS011;71899;51.992;8.648;2023-12-04T09:42:16;7.78;;;4.25;;
82296;SDS011;71899;51.992;8.648;2023-12-04T09:44:43;10.13;;;5.90;;
82296;SDS011;71899;51.992;8.648;2023-12-04T09:47:09;7.85;;;4.95;;
82296;SDS011;71899;51.992;8.648;2023-12-04T09:49:35;9.27;;;5.70;;
82296;SDS011;71899;51.992;8.648;2023-12-04T09:52:01;9.68;;;6.00;;
82296;SDS011;71899;51.992;8.648;2023-12-04T09:54:29;10.43;;;5.30;;
82296;SDS011;71899;51.992;8.648;2023-12-04T09:56:56;10.88;;;5.70;;
82296;SDS011;71899;51.992;8.648;2023-12-04T09:59:23;8.23;;;5.22;;
82296;SDS011;71899;51.992;8.648;2023-12-04T10:01:52;10.32;;;6.28;;
82296;SDS011;71899;51.992;8.648;2023-12-04T10:04:18;7.65;;;5.07;;
82296;SDS011;71899;51.992;8.648;2023-12-04T10:06:44;8.77;;;5.35;;
82296;SDS011;71899;51.992;8.648;2023-12-04T10:09:10;9.52;;;4.90;;
82296;SDS011;71899;51.992;8.648;2023-12-04T10:11:41;8.45;;;5.40;;
82296;SDS011;71899;51.992;8.648;2023-12-04T10:14:13;10.52;;;6.18;;
82296;SDS011;71899;51.992;8.648;2023-12-04T10:16:42;9.90;;;5.95;;
82296;SDS011;71899;51.992;8.648;2023-12-04T10:21:46;9.23;;;5.18;;
82296;SDS011;71899;51.992;8.648;2023-12-04T10:24:26;8.73;;;4.82;;
82296;SDS011;71899;51.992;8.648;2023-12-04T10:26:53;7.68;;;5.30;;
82296;SDS011;71899;51.992;8.648;2023-12-04T10:29:18;8.98;;;5.13;;
82296;SDS011;71899;51.992;8.648;2023-12-04T10:31:43;7.65;;;4.82;;
82296;SDS011;71899;51.992;8.648;2023-12-04T10:34:09;8.60;;;5.05;;
82296;SDS011;71899;51.992;8.648;2023-12-04T10:36:37;9.45;;;6.13;;
82296;SDS011;71899;51.992;8.648;2023-12-04T10:39:03;8.38;;;5.50;;
82296;SDS011;71899;51.992;8.648;2023-12-04T10:41:31;8.18;;;5.05;;
82296;SDS011;71899;51.992;8.648;2023-12-04T10:43:57;9.35;;;5.22;;
82296;SDS011;71899;51.992;8.648;2023-12-04T10:46:26;8.27;;;5.32;;
82296;SDS011;71899;51.992;8.648;2023-12-04T10:48:52;8.93;;;5.55;;
82296;SDS011;71899;51.992;8.648;2023-12-04T10:51:18;8.73;;;4.53;;
82296;SDS011;71899;51.992;8.648;2023-12-04T10:53:44;9.48;;;5.55;;
82296;SDS011;71899;51.992;8.648;2023-12-04T10:56:14;8.52;;;5.20;;
82296;SDS011;71899;51.992;8.648;2023-12-04T10:58:47;7.70;;;4.72;;
82296;SDS011;71899;51.992;8.648;2023-12-04T11:01:15;10.98;;;5.82;;
82296;SDS011;71899;51.992;8.648;2023-12-04T11:03:49;8.65;;;5.07;;
82296;SDS011;71899;51.992;8.648;2023-12-04T11:06:20;8.80;;;4.93;;
82296;SDS011;71899;51.992;8.648;2023-12-04T11:08:47;8.88;;;5.20;;
82296;SDS011;71899;51.992;8.648;2023-12-04T11:11:18;7.90;;;4.80;;
82296;SDS011;71899;51.992;8.648;2023-12-04T11:13:50;8.10;;;5.17;;
82296;SDS011;71899;51.992;8.648;2023-12-04T11:21:48;4.82;;;3.78;;
82296;SDS011;71899;51.992;8.648;2023-12-04T11:24:15;7.50;;;4.68;;
82296;SDS011;71899;51.992;8.648;2023-12-04T11:26:42;8.13;;;4.90;;
82296;SDS011;71899;51.992;8.648;2023-12-04T11:29:09;8.38;;;5.45;;
82296;SDS011;71899;51.992;8.648;2023-12-04T11:31:36;9.27;;;4.97;;
82296;SDS011;71899;51.992;8.648;2023-12-04T11:34:03;8.70;;;5.80;;
82296;SDS011;71899;51.992;8.648;2023-12-04T11:36:29;10.95;;;4.72;;
82296;SDS011;71899;51.992;8.648;2023-12-04T11:38:55;9.52;;;5.15;;
82296;SDS011;71899;51.992;8.648;2023-12-04T11:41:24;7.80;;;5.13;;
82296;SDS011;71899;51.992;8.648;2023-12-04T11:43:50;8.00;;;4.60;;
82296;SDS011;71899;51.992;8.648;2023-12-04T11:46:24;9.35;;;5.32;;
82296;SDS011;71899;51.992;8.648;2023-12-04T11:48:50;9.70;;;5.82;;
82296;SDS011;71899;51.992;8.648;2023-12-04T11:54:15;8.77;;;5.38;;
82296;SDS011;71899;51.992;8.648;2023-12-04T11:56:58;6.38;;;4.63;;
82296;SDS011;71899;51.992;8.648;2023-12-04T11:59:34;8.40;;;5.28;;
82296;SDS011;71899;51.992;8.648;2023-12-04T12:02:02;6.97;;;4.85;;
82296;SDS011;71899;51.992;8.648;2023-12-04T12:04:29;5.30;;;3.72;;
82296;SDS011;71899;51.992;8.648;2023-12-04T12:06:54;9.15;;;5.22;;
82296;SDS011;71899;51.992;8.648;2023-12-04T12:09:20;9.63;;;5.15;;
82296;SDS011;71899;51.992;8.648;2023-12-04T12:11:47;8.88;;;5.38;;
82296;SDS011;71899;51.992;8.648;2023-12-04T12:14:14;8.43;;;5.22;;
82296;SDS011;71899;51.992;8.648;2023-12-04T12:16:39;10.63;;;5.60;;
82296;SDS011;71899;51.992;8.648;2023-12-04T12:19:05;7.47;;;4.78;;
82296;SDS011;71899;51.992;8.648;2023-12-04T12:21:30;9.02;;;5.25;;
82296;SDS011;71899;51.992;8.648;2023-12-04T12:23:55;7.03;;;4.63;;
82296;SDS011;71899;51.992;8.648;2023-12-04T12:26:21;7.93;;;4.78;;
82296;SDS011;71899;51.992;8.648;2023-12-04T12:28:46;9.38;;;5.68;;
82296;SDS011;71899;51.992;8.648;2023-12-04T12:31:12;6.40;;;4.00;;
82296;SDS011;71899;51.992;8.648;2023-12-04T12:33:37;5.97;;;4.30;;
82296;SDS011;71899;51.992;8.648;2023-12-04T12:36:02;8.48;;;5.07;;
82296;SDS011;71899;51.992;8.648;2023-12-04T12:38:29;8.57;;;4.45;;
82296;SDS011;71899;51.992;8.648;2023-12-04T12:40:59;7.07;;;4.35;;
82296;SDS011;71899;51.992;8.648;2023-12-04T12:43:27;8.23;;;5.18;;
82296;SDS011;71899;51.992;8.648;2023-12-04T12:45:52;8.57;;;4.95;;
82296;SDS011;71899;51.992;8.648;2023-12-04T12:48:18;7.55;;;4.80;;
82296;SDS011;71899;51.992;8.648;2023-12-04T12:50:46;7.88;;;5.18;;
82296;SDS011;71899;51.992;8.648;2023-12-04T12:53:13;5.90;;;3.78;;
82296;SDS011;71899;51.992;8.648;2023-12-04T12:55:41;7.05;;;4.70;;
82296;SDS011;71899;51.992;8.648;2023-12-04T12:58:08;9.65;;;4.80;;
82296;SDS011;71899;51.992;8.648;2023-12-04T13:00:34;6.97;;;4.50;;
82296;SDS011;71899;51.992;8.648;2023-12-04T13:03:00;10.85;;;5.55;;
82296;SDS011;71899;51.992;8.648;2023-12-04T13:05:26;5.63;;;3.97;;
82296;SDS011;71899;51.992;8.648;2023-12-04T13:07:52;7.68;;;4.60;;
82296;SDS011;71899;51.992;8.648;2023-12-04T13:10:17;7.20;;;4.03;;
82296;SDS011;71899;51.992;8.648;2023-12-04T13:12:43;8.30;;;4.97;;
82296;SDS011;71899;51.992;8.648;2023-12-04T13:15:08;5.78;;;3.55;;
82296;SDS011;71899;51.992;8.648;2023-12-04T13:17:35;10.07;;;5.90;;
82296;SDS011;71899;51.992;8.648;2023-12-04T13:20:01;7.32;;;4.85;;
82296;SDS011;71899;51.992;8.648;2023-12-04T13:22:26;5.50;;;3.88;;
82296;SDS011;71899;51.992;8.648;2023-12-04T13:24:52;7.68;;;4.32;;
82296;SDS011;71899;51.992;8.648;2023-12-04T13:27:18;6.70;;;4.50;;
82296;SDS011;71899;51.992;8.648;2023-12-04T13:29:43;7.20;;;4.38;;
82296;SDS011;71899;51.992;8.648;2023-12-04T13:32:08;7.68;;;4.72;;
82296;SDS011;71899;51.992;8.648;2023-12-04T13:34:34;8.45;;;5.30;;
82296;SDS011;71899;51.992;8.648;2023-12-04T13:36:59;12.05;;;4.82;;
82296;SDS011;71899;51.992;8.648;2023-12-04T13:39:25;6.82;;;4.20;;
82296;SDS011;71899;51.992;8.648;2023-12-04T13:42:12;8.02;;;4.82;;
82296;SDS011;71899;51.992;8.648;2023-12-04T13:44:56;7.00;;;4.75;;
82296;SDS011;71899;51.992;8.648;2023-12-04T13:47:21;7.75;;;4.70;;
82296;SDS011;71899;51.992;8.648;2023-12-04T13:49:46;7.03;;;4.55;;
82296;SDS011;71899;51.992;8.648;2023-12-04T13:52:12;8.20;;;5.00;;
82296;SDS011;71899;51.992;8.648;2023-12-04T13:54:38;5.85;;;4.57;;
82296;SDS011;71899;51.992;8.648;2023-12-04T13:57:12;9.55;;;5.07;;
82296;SDS011;71899;51.992;8.648;2023-12-04T13:59:52;8.60;;;5.15;;
82296;SDS011;71899;51.992;8.648;2023-12-04T14:02:18;8.13;;;4.65;;
82296;SDS011;71899;51.992;8.648;2023-12-04T14:04:43;6.32;;;4.15;;
82296;SDS011;71899;51.992;8.648;2023-12-04T14:07:09;7.78;;;5.03;;
82296;SDS011;71899;51.992;8.648;2023-12-04T14:09:35;10.90;;;4.90;;
82296;SDS011;71899;51.992;8.648;2023-12-04T14:12:00;6.47;;;4.97;;
82296;SDS011;71899;51.992;8.648;2023-12-04T14:14:26;7.68;;;4.90;;
82296;SDS011;71899;51.992;8.648;2023-12-04T14:16:51;8.40;;;4.88;;
82296;SDS011;71899;51.992;8.648;2023-12-04T14:19:17;7.05;;;4.85;;
82296;SDS011;71899;51.992;8.648;2023-12-04T14:21:46;6.22;;;4.88;;
82296;SDS011;71899;51.992;8.648;2023-12-04T14:24:13;8.80;;;5.30;;
82296;SDS011;71899;51.992;8.648;2023-12-04T14:26:38;10.35;;;5.63;;
82296;SDS011;71899;51.992;8.648;2023-12-04T14:29:04;8.55;;;6.05;;
82296;SDS011;71899;51.992;8.648;2023-12-04T14:31:31;6.45;;;4.30;;
82296;SDS011;71899;51.992;8.648;2023-12-04T14:33:57;7.53;;;5.03;;
82296;SDS011;71899;51.992;8.648;2023-12-04T14:36:22;8.13;;;4.55;;
82296;SDS011;71899;51.992;8.648;2023-12-04T14:38:47;7.28;;;4.50;;
82296;SDS011;71899;51.992;8.648;2023-12-04T14:41:13;7.78;;;5.38;;
82296;SDS011;71899;51.992;8.648;2023-12-04T14:43:38;8.95;;;5.10;;